»·PEaware :: WAT306 KSFO-KVNY

WAT306 :: KSFO-KVNY

FLIGHT INFORMATION

Flight Status: Arrived
Operator:
Walker Air Transport
More flights by this operator :: More flights under this callsign
Pilot: Ethan S. (29221)
Aircraft: DASSAULT AVIATION FALCON 50
(FA50)
More flights by this aircraft type
Origin: KSFO San Francisco Intl
United States
Destination: KVNY Van Nuys
United States
More flights between these airports :: More routes between these airports
Route: SSTIK4 CISKO RDHOT IVINS1
File this flight plan on PilotEdge
Remarks:
Altitude:
(Current/Filed)
27,000ft
Speed:
(Current/Filed)
480kts
Departed: 03-Feb-21 08:15 PM
Arrived: 03-Feb-21 09:03 PM
Distance/Time
Traveled:
279nm/0:48
Distance/Time
To Go:
Arrived

Flight Plot

Page will automatically refresh every two minutes.

Flight plan parsing failed; only flown route is shown


Map Options




Map Legend


Flown Route
Filed Route
Departure Airport
Arrival Airport
Navaid (VOR, NDB)
Fix

Horizontal Profiles

Position Reports

Time Latitude Longitude Heading Altitude Ground
Speed
03-Feb-21 19:47 37.627757 -122.384458 155 15ft 0kts
03-Feb-21 19:48 37.627757 -122.384458 155 15ft 0kts
03-Feb-21 19:49 37.627757 -122.384458 155 15ft 0kts
03-Feb-21 19:50 37.627757 -122.384458 155 15ft 0kts
03-Feb-21 19:51 37.627757 -122.384458 155 15ft 0kts
03-Feb-21 19:52 37.627757 -122.384458 155 15ft 0kts
03-Feb-21 19:53 37.627757 -122.384458 155 15ft 0kts
03-Feb-21 19:53 37.627757 -122.384458 155 15ft 0kts
03-Feb-21 19:55 37.627757 -122.384458 155 15ft 0kts
03-Feb-21 19:56 37.627757 -122.384458 155 15ft 0kts
03-Feb-21 19:56 37.627757 -122.384458 155 15ft 0kts
03-Feb-21 19:58 37.627757 -122.384458 155 15ft 0kts
03-Feb-21 19:58 37.627757 -122.384458 155 15ft 0kts
03-Feb-21 19:59 37.627757 -122.384458 155 15ft 0kts
03-Feb-21 20:01 37.627757 -122.384458 155 15ft 0kts
03-Feb-21 20:01 37.627757 -122.384458 155 15ft 0kts
03-Feb-21 20:02 37.627757 -122.384458 155 15ft 0kts
03-Feb-21 20:03 37.626924 -122.384586 199 16ft 4kts
03-Feb-21 20:04 37.625977 -122.383118 118 19ft 7kts
03-Feb-21 20:05 37.625078 -122.380963 117 23ft 7kts
03-Feb-21 20:06 37.623539 -122.377299 118 21ft 14kts
03-Feb-21 20:07 37.621698 -122.376440 228 23ft 6kts
03-Feb-21 20:08 37.620103 -122.378676 227 27ft 10kts
03-Feb-21 20:09 37.617588 -122.379469 176 29ft 12kts
03-Feb-21 20:10 37.614211 -122.381243 208 30ft 13kts
03-Feb-21 20:11 37.610541 -122.383679 210 30ft 14kts
03-Feb-21 20:12 37.608406 -122.384495 10 30ft 8kts
03-Feb-21 20:13 37.609147 -122.383314 111 30ft 0kts
03-Feb-21 20:14 37.610190 -122.381421 28 29ft 47kts
03-Feb-21 20:15 37.647567 -122.356945 1 1996ft 178kts
03-Feb-21 20:16 37.695412 -122.382358 282 5521ft 211kts
03-Feb-21 20:17 37.641496 -122.427627 196 9071ft 289kts
03-Feb-21 20:18 37.548142 -122.456111 196 10010ft 348kts
03-Feb-21 20:19 37.453171 -122.430263 134 10663ft 371kts
03-Feb-21 20:20 37.377015 -122.338078 134 13498ft 384kts
03-Feb-21 20:21 37.297245 -122.241953 134 15797ft 399kts
03-Feb-21 20:22 37.215694 -122.144051 135 17754ft 412kts
03-Feb-21 20:23 37.127339 -122.038323 135 20385ft 431kts
03-Feb-21 20:24 37.035597 -121.928939 137 22840ft 448kts
03-Feb-21 20:25 36.942957 -121.818868 140 25205ft 453kts
03-Feb-21 20:26 36.846003 -121.704084 141 27281ft 459kts
03-Feb-21 20:27 36.740348 -121.579594 140 27263ft 504kts
03-Feb-21 20:28 36.632789 -121.453169 140 27263ft 525kts
03-Feb-21 20:29 36.524008 -121.325834 140 27256ft 522kts
03-Feb-21 20:30 36.418704 -121.203126 141 27254ft 519kts
03-Feb-21 20:31 36.309888 -121.085493 146 27230ft 517kts
03-Feb-21 20:32 36.195356 -120.969417 148 27199ft 520kts
03-Feb-21 20:33 36.081525 -120.853347 148 27188ft 523kts
03-Feb-21 20:34 35.968973 -120.738976 148 27201ft 525kts
03-Feb-21 20:35 35.855879 -120.624491 148 27199ft 526kts
03-Feb-21 20:36 35.742364 -120.510017 148 27198ft 528kts
03-Feb-21 20:37 35.628199 -120.395393 148 27200ft 529kts
03-Feb-21 20:38 35.514904 -120.279082 147 27188ft 531kts
03-Feb-21 20:39 35.396095 -120.154984 147 27175ft 529kts
03-Feb-21 20:40 35.281884 -120.036523 147 27158ft 529kts
03-Feb-21 20:41 35.158354 -119.908922 147 27140ft 529kts
03-Feb-21 20:42 35.039282 -119.786444 147 26447ft 533kts
03-Feb-21 20:43 34.930286 -119.674396 147 23470ft 469kts
03-Feb-21 20:44 34.838603 -119.564149 136 20895ft 428kts
03-Feb-21 20:45 34.761607 -119.449162 134 18536ft 390kts
03-Feb-21 20:46 34.691661 -119.342089 134 16473ft 359kts
03-Feb-21 20:47 34.627930 -119.237497 124 14562ft 367kts
03-Feb-21 20:48 34.577323 -119.134753 123 12865ft 334kts
03-Feb-21 20:49 34.523580 -119.050254 147 11348ft 303kts
03-Feb-21 20:50 34.457254 -118.989297 147 9824ft 288kts
03-Feb-21 20:51 34.396138 -118.930246 145 8617ft 274kts
03-Feb-21 20:52 34.340374 -118.871879 142 7876ft 250kts
03-Feb-21 20:53 34.290550 -118.816755 143 7057ft 234kts
03-Feb-21 20:54 34.244741 -118.766603 143 6975ft 211kts
03-Feb-21 20:55 34.199835 -118.716226 140 6171ft 227kts
03-Feb-21 20:56 34.156248 -118.666849 139 5399ft 218kts
03-Feb-21 20:57 34.116997 -118.609109 94 3688ft 226kts
03-Feb-21 20:58 34.118444 -118.536623 85 2979ft 199kts
03-Feb-21 20:59 34.138170 -118.487122 11 2421ft 168kts
03-Feb-21 21:00 34.173595 -118.486861 357 1238ft 117kts
03-Feb-21 21:01 34.206663 -118.490085 356 808ft 88kts
03-Feb-21 21:02 34.213154 -118.491608 247 808ft 3kts
03-Feb-21 21:03 34.211010 -118.491653 175 808ft 14kts
03-Feb-21 21:04 34.206861 -118.491268 175 808ft 14kts
03-Feb-21 21:05 34.203337 -118.491186 263 808ft 6kts
03-Feb-21 21:06 34.202438 -118.491707 176 808ft 5kts
03-Feb-21 21:07 34.202358 -118.491701 175 808ft 0kts
03-Feb-21 21:08 34.202358 -118.491701 175 808ft 0kts
03-Feb-21 21:09 34.202358 -118.491701 175 808ft 0kts
03-Feb-21 21:10 34.202358 -118.491701 175 808ft 0kts

Navigation Log

Ident Type
Flight plan parsing failed, navigation log unavailable